map of ZIG home
ZIG - Airport
Location
City:  Ziguinchor, Ziguinchor, Senegal
Name:Ziguinchor Airport
ICAO:GOGG
IATA:ZIG

Details
Type:Airport (Aerodrome, Airfield)
Use:Public/Civil
Latitude:1233'20"N (12.555617)
Longitude:1616'54"W (-16.281782)
Datum:WGS 1984
Elevation:75 ft (23 m)
Variation:7.23W (WMM2015 magnetic declination)
0.11 annual change
Runways:1
Longest:5069 × 98 ft (1545 × 30 m), paved

Time
Time Zone:UTC+0
Local Time:

Weather
METAR:GOGG 130600Z 00000KT CAVOK 17/17 Q1013

Related Locations
Nearby:
Farthest:NNB: 12290 mi / 19779 km
Santa Ana Island (Ghupuna) [Santa Ana Airport], SB

Find:

   beyond  
but within

Other Information
Maps:
NOTAMs:
Links:
Sources:

  
  • flag of Senegal
  

Sectional Chart

Flight Planning
at skyvector.com

Satellite Image

Google Maps Satellite view

 

Copyright © 2004-2018 Karl L. Swartz. All rights reserved.
The Great Circle Mapper name and logo are trademarks of the Great Circle Mapper.
All other trademarks mentioned herein belong to their respective owners.
Please see credits for attibutions and further copyright information.

  Follow gcmap on Facebook Follow gcmap on Twitter Follow gcmap on Google+ GCmap on LinkedIn

hCard Microformat

Geo Microformat